Time;durP1;ratioP1;P1;durP2;ratioP2;P2;SDS_P1;SDS_P2;PMS_P1;PMS_P2;Temp;Humidity;BMP_temperature;BMP_pressure;BME280_temperature;BME280_humidity;BME280_pressure;Samples;Min_cycle;Max_cycle;Signal;HPM_P1;HPM_P2
2023/08/13 00:00:06;;;;;;;;;1.00;1.00;;;;;18.91;69.74;101577.03;4992647;28;8827;-68
2023/08/13 00:02:33;;;;;;;;;2.50;1.00;;;;;18.89;69.70;101584.63;5008812;28;8976;-69
2023/08/13 00:04:59;;;;;;;;;1.25;1.00;;;;;18.89;69.74;101577.28;4987710;28;8909;-69
2023/08/13 00:07:26;;;;;;;;;2.50;2.25;;;;;18.81;70.15;101577.59;4992885;28;8917;-68
2023/08/13 00:09:52;;;;;;;;;1.00;1.00;;;;;18.84;70.42;101588.06;5001896;28;8822;-69
2023/08/13 00:12:19;;;;;;;;;2.00;2.00;;;;;18.88;70.54;101582.94;5009554;28;9763;-68
2023/08/13 00:14:45;;;;;;;;;1.00;1.00;;;;;18.90;70.70;101580.81;4991782;28;8855;-70
2023/08/13 00:17:12;;;;;;;;;2.00;2.00;;;;;18.89;70.58;101577.28;5010344;28;8836;-68
2023/08/13 00:19:39;;;;;;;;;2.00;1.50;;;;;18.91;70.80;101571.56;4973054;28;8849;-68
2023/08/13 00:22:05;;;;;;;;;1.00;1.00;;;;;18.88;70.88;101575.63;5010643;28;8845;-68
2023/08/13 00:24:33;;;;;;;;;2.50;2.25;;;;;18.86;71.29;101576.91;5004727;28;8841;-69
2023/08/13 00:27:00;;;;;;;;;1.25;1.00;;;;;18.82;71.44;101572.97;5011394;28;8958;-69
2023/08/13 00:29:27;;;;;;;;;2.00;1.00;;;;;18.80;71.71;101573.22;5011742;28;8867;-69
2023/08/13 00:31:55;;;;;;;;;1.25;1.00;;;;;18.74;71.87;101569.50;5013293;28;8835;-67
2023/08/13 00:34:22;;;;;;;;;2.00;1.00;;;;;18.71;72.29;101567.22;5013124;28;8863;-70
2023/08/13 00:36:48;;;;;;;;;1.00;1.00;;;;;18.74;72.43;101564.03;4994568;28;8845;-69
2023/08/13 00:39:15;;;;;;;;;1.00;1.00;;;;;18.75;72.31;101557.50;5008043;28;8843;-68
2023/08/13 00:41:41;;;;;;;;;2.50;1.00;;;;;18.75;72.46;101560.25;4996433;28;8851;-69
2023/08/13 00:44:08;;;;;;;;;0.75;0.75;;;;;18.77;72.57;101568.22;4995048;28;8857;-69
2023/08/13 00:46:36;;;;;;;;;2.25;1.00;;;;;18.80;72.58;101572.34;5010893;28;8815;-69
2023/08/13 00:49:02;;;;;;;;;2.75;2.75;;;;;18.79;72.47;101574.25;5014444;28;8871;-68
2023/08/13 00:51:29;;;;;;;;;1.25;1.25;;;;;18.78;72.70;101578.88;4993819;28;8860;-69
2023/08/13 00:53:56;;;;;;;;;3.00;1.50;;;;;18.71;72.67;101575.41;5002683;28;9633;-69
2023/08/13 00:56:23;;;;;;;;;0.50;0.50;;;;;18.73;72.93;101573.28;4996004;28;8866;-71
2023/08/13 00:58:50;;;;;;;;;1.00;1.00;;;;;18.75;72.82;101568.41;5015508;28;8839;-69
2023/08/13 01:01:17;;;;;;;;;1.75;1.00;;;;;18.75;72.69;101571.16;4995761;28;8857;-70
2023/08/13 01:03:44;;;;;;;;;2.00;2.00;;;;;18.75;72.56;101562.13;5012697;28;8839;-68
2023/08/13 01:06:15;;;;;;;;;2.00;1.25;;;;;18.75;72.48;101562.97;5001220;28;8829;-69
2023/08/13 01:09:18;;;;;;;;;2.25;2.00;;;;;18.74;72.40;101557.75;5010749;28;8839;-67
2023/08/13 01:12:02;;;;;;;;;5.25;3.75;;;;;18.70;72.28;101564.72;5013423;28;8940;-67
2023/08/13 01:14:40;;;;;;;;;3.00;1.25;;;;;18.69;72.57;101566.59;4994846;28;8829;-67
2023/08/13 01:17:09;;;;;;;;;1.50;1.50;;;;;18.68;72.36;101556.75;5009477;28;8931;-70
2023/08/13 01:19:36;;;;;;;;;1.75;1.75;;;;;18.69;72.43;101561.16;5007552;28;8860;-70
2023/08/13 01:22:02;;;;;;;;;4.00;2.75;;;;;18.70;72.43;101560.09;4996022;28;9627;-70
2023/08/13 01:24:29;;;;;;;;;3.50;2.50;;;;;18.65;72.40;101551.75;5020704;28;8906;-70
2023/08/13 01:27:13;;;;;;;;;3.00;2.25;;;;;18.64;72.39;101558.28;4995582;28;8886;-69
2023/08/13 01:29:49;;;;;;;;;1.75;1.25;;;;;18.62;72.43;101548.66;5010838;28;8831;-69
2023/08/13 01:32:21;;;;;;;;;2.00;2.00;;;;;18.62;72.64;101545.94;5015406;28;8897;-69
2023/08/13 01:34:49;;;;;;;;;4.25;2.75;;;;;18.56;72.50;101546.88;4994191;28;8961;-68
2023/08/13 01:37:18;;;;;;;;;2.75;2.25;;;;;18.50;72.98;101540.41;5001664;28;8825;-68
2023/08/13 01:39:45;;;;;;;;;3.50;2.00;;;;;18.52;72.87;101544.59;4997243;28;8882;-68
2023/08/13 01:42:11;;;;;;;;;1.00;1.00;;;;;18.50;73.03;101548.59;4995321;28;8823;-68
2023/08/13 01:44:39;;;;;;;;;3.50;1.50;;;;;18.54;73.14;101549.81;4988521;28;8834;-69
2023/08/13 01:47:05;;;;;;;;;3.50;2.00;;;;;18.51;72.83;101548.38;5003167;28;9644;-69
2023/08/13 01:49:32;;;;;;;;;3.00;3.00;;;;;18.51;73.27;101551.13;4995068;28;8951;-69
2023/08/13 01:51:59;;;;;;;;;1.25;1.00;;;;;18.56;73.38;101557.78;5012494;28;9599;-69
2023/08/13 01:54:27;;;;;;;;;4.25;1.75;;;;;18.60;72.82;101556.25;4975367;28;8923;-69
2023/08/13 01:56:53;;;;;;;;;3.75;3.00;;;;;18.57;72.73;101559.44;4982213;28;8832;-69
2023/08/13 01:59:21;;;;;;;;;1.00;1.00;;;;;18.58;72.91;101552.91;4982329;28;8958;-68
2023/08/13 02:01:47;;;;;;;;;2.50;2.25;;;;;18.56;72.71;101555.88;4999381;28;8868;-68
2023/08/13 02:04:14;;;;;;;;;3.75;2.50;;;;;18.52;72.96;101550.06;4984318;28;8820;-68
2023/08/13 02:06:41;;;;;;;;;1.00;1.00;;;;;18.54;73.12;101547.06;4994445;28;8839;-68
2023/08/13 02:09:08;;;;;;;;;1.50;1.50;;;;;18.52;73.13;101554.66;5021426;28;8817;-68
2023/08/13 02:11:35;;;;;;;;;2.00;2.00;;;;;18.51;73.35;101550.25;4996160;28;8857;-68
2023/08/13 02:14:01;;;;;;;;;1.25;1.00;;;;;18.52;73.06;101550.06;4989028;28;8960;-68
2023/08/13 02:16:28;;;;;;;;;5.50;2.00;;;;;18.44;73.42;101552.25;4995092;28;8919;-68
2023/08/13 02:18:56;;;;;;;;;1.00;1.00;;;;;18.44;73.81;101553.09;4982468;28;8841;-69
2023/08/13 02:21:22;;;;;;;;;2.50;2.25;;;;;18.45;73.27;101548.47;4975167;28;8838;-69
2023/08/13 02:23:49;;;;;;;;;2.50;1.00;;;;;18.44;73.70;101552.25;4983824;28;9571;-69
2023/08/13 02:26:15;;;;;;;;;1.00;1.00;;;;;18.47;73.72;101552.63;4992660;28;8845;-69
2023/08/13 02:28:45;;;;;;;;;4.25;2.00;;;;;18.48;73.72;101550.75;4994106;28;9602;-69
2023/08/13 02:31:12;;;;;;;;;3.00;2.50;;;;;18.48;73.59;101558.91;4998143;28;8954;-68
2023/08/13 02:33:38;;;;;;;;;2.00;2.00;;;;;18.43;73.70;101551.44;4991631;28;8839;-69
2023/08/13 02:36:05;;;;;;;;;2.50;2.00;;;;;18.40;73.97;101543.69;4995285;28;9623;-69
2023/08/13 02:38:32;;;;;;;;;4.50;2.75;;;;;18.35;74.08;101543.56;5004831;28;8828;-69
2023/08/13 02:40:58;;;;;;;;;4.00;3.00;;;;;18.38;74.35;101548.53;4989436;28;8830;-68
2023/08/13 02:43:32;;;;;;;;;3.00;3.00;;;;;18.41;74.36;101545.34;4974547;28;8861;-68
2023/08/13 02:45:59;;;;;;;;;3.00;3.00;;;;;18.45;74.12;101537.56;4994614;28;8897;-69
2023/08/13 02:48:27;;;;;;;;;3.00;2.00;;;;;18.45;74.23;101543.00;4988947;28;8829;-69
2023/08/13 02:50:54;;;;;;;;;2.00;2.00;;;;;18.44;73.91;101541.34;4991377;28;8827;-69
2023/08/13 02:53:20;;;;;;;;;2.00;1.00;;;;;18.45;73.85;101551.19;5011639;28;9556;-68
2023/08/13 02:55:48;;;;;;;;;3.25;2.50;;;;;18.44;74.04;101552.25;5009779;28;8857;-68
2023/08/13 02:58:15;;;;;;;;;1.25;1.25;;;;;18.41;74.03;101541.81;4987329;28;8877;-68
2023/08/13 03:00:41;;;;;;;;;2.75;2.00;;;;;18.41;74.05;101541.81;4974217;28;8841;-68
2023/08/13 03:03:08;;;;;;;;;2.00;2.00;;;;;18.44;73.97;101547.63;4979479;28;8858;-68
2023/08/13 03:05:35;;;;;;;;;3.00;2.25;;;;;18.45;73.86;101549.28;4992916;28;9603;-69
2023/08/13 03:08:02;;;;;;;;;1.50;1.00;;;;;18.48;74.15;101550.75;5002117;28;9545;-68
2023/08/13 03:10:30;;;;;;;;;5.00;2.25;;;;;18.47;73.88;101551.78;5009762;28;8870;-68
2023/08/13 03:12:56;;;;;;;;;3.00;3.00;;;;;18.43;74.00;101551.44;5010611;28;8843;-68
2023/08/13 03:15:23;;;;;;;;;3.25;3.25;;;;;18.44;74.21;101541.34;5011442;28;9615;-69
2023/08/13 03:17:50;;;;;;;;;1.75;0.75;;;;;18.45;73.96;101545.75;4993333;28;8850;-69
2023/08/13 03:20:17;;;;;;;;;4.25;4.00;;;;;18.44;74.22;101546.81;4990836;28;9599;-68
2023/08/13 03:22:43;;;;;;;;;3.00;3.00;;;;;18.44;74.22;101541.34;5014226;28;8825;-69
2023/08/13 03:25:10;;;;;;;;;3.50;2.00;;;;;18.38;74.32;101540.34;5008092;28;8863;-69
2023/08/13 03:27:37;;;;;;;;;1.00;1.00;;;;;18.39;74.54;101549.38;5030576;28;9554;-69
2023/08/13 03:30:07;;;;;;;;;6.25;3.75;;;;;18.37;74.72;101543.31;5027513;23;11181;-68
2023/08/13 03:32:35;;;;;;;;;5.50;4.50;;;;;18.37;74.70;101548.78;5000351;28;8873;-68
2023/08/13 03:35:02;;;;;;;;;2.75;2.75;;;;;18.31;74.82;101546.94;5006357;28;9010;-68
2023/08/13 03:37:29;;;;;;;;;5.50;4.00;;;;;18.28;74.71;101538.19;5001554;28;8853;-68
2023/08/13 03:39:55;;;;;;;;;3.00;2.00;;;;;18.26;74.98;101545.75;5006007;28;8854;-68
2023/08/13 03:42:22;;;;;;;;;3.00;3.00;;;;;18.26;75.50;101550.38;5025861;28;8917;-68
2023/08/13 03:44:50;;;;;;;;;5.25;2.75;;;;;18.25;75.10;101544.09;4990438;28;8853;-68
2023/08/13 03:47:17;;;;;;;;;5.00;4.50;;;;;18.27;75.33;101546.56;4991051;28;8829;-68
2023/08/13 03:49:43;;;;;;;;;3.25;3.25;;;;;18.26;75.30;101545.75;4990789;28;8834;-68
2023/08/13 03:52:10;;;;;;;;;1.00;1.00;;;;;18.27;75.20;101546.56;4970072;28;8861;-68
2023/08/13 03:54:37;;;;;;;;;2.75;2.75;;;;;18.22;75.36;101549.16;4997820;28;8914;-68
2023/08/13 03:57:04;;;;;;;;;4.00;3.00;;;;;18.15;75.59;101557.44;4999042;28;8908;-67
2023/08/13 03:59:30;;;;;;;;;4.00;2.75;;;;;18.17;75.83;101552.56;4977827;28;8917;-68
2023/08/13 04:01:58;;;;;;;;;3.00;3.00;;;;;18.14;75.98;101558.47;4981562;28;8852;-68
2023/08/13 04:04:26;;;;;;;;;5.50;3.00;;;;;18.17;76.02;101546.28;4970195;28;8895;-68
2023/08/13 04:06:52;;;;;;;;;4.00;1.75;;;;;18.18;76.12;101545.22;4973188;28;8871;-68
2023/08/13 04:09:19;;;;;;;;;2.00;2.00;;;;;18.18;76.12;101553.41;4985546;28;8837;-68
2023/08/13 04:11:45;;;;;;;;;3.25;1.75;;;;;18.18;76.14;101562.41;4992023;28;8838;-68
2023/08/13 04:14:12;;;;;;;;;3.25;2.25;;;;;18.18;76.04;101556.13;5005780;28;8866;-68
2023/08/13 04:16:38;;;;;;;;;2.00;2.00;;;;;18.17;76.16;101560.75;4983771;28;8967;-68
2023/08/13 04:19:05;;;;;;;;;4.25;2.50;;;;;18.18;76.09;101559.66;4969799;28;8860;-68
2023/08/13 04:21:31;;;;;;;;;1.50;1.50;;;;;18.16;76.44;101560.97;4972123;28;8840;-68
2023/08/13 04:23:58;;;;;;;;;2.75;2.75;;;;;18.18;75.93;101556.13;4978078;28;8956;-68
2023/08/13 04:26:25;;;;;;;;;2.75;2.75;;;;;18.18;76.26;101556.94;4996848;28;9573;-68
2023/08/13 04:28:54;;;;;;;;;2.00;2.00;;;;;18.22;76.39;101555.44;4989237;28;8830;-68
2023/08/13 04:31:21;;;;;;;;;4.00;3.00;;;;;18.20;76.04;101557.56;4988047;28;8834;-68
2023/08/13 04:33:48;;;;;;;;;1.50;1.25;;;;;18.17;76.14;101563.47;4973013;28;8865;-68
2023/08/13 04:36:15;;;;;;;;;3.25;2.50;;;;;18.18;76.26;101565.13;4986726;28;8896;-68
2023/08/13 04:38:42;;;;;;;;;3.25;3.00;;;;;18.23;76.09;101561.72;4986622;28;8855;-68
2023/08/13 04:41:08;;;;;;;;;1.25;1.00;;;;;18.24;76.08;101564.22;4983718;28;8826;-68
2023/08/13 04:43:41;;;;;;;;;2.50;2.50;;;;;18.18;76.05;101570.56;5000165;28;8851;-68
2023/08/13 04:46:08;;;;;;;;;3.75;3.75;;;;;18.16;76.42;101571.88;5025218;28;8855;-68
2023/08/13 04:48:47;;;;;;;;;3.00;2.25;;;;;18.16;76.35;101575.44;5024925;28;8842;-68
2023/08/13 04:51:20;;;;;;;;;3.00;2.00;;;;;18.15;76.33;101564.75;4998231;28;8833;-68
2023/08/13 04:53:47;;;;;;;;;3.00;3.00;;;;;18.17;75.91;101566.19;4987180;28;8984;-68
2023/08/13 04:56:16;;;;;;;;;3.25;2.25;;;;;18.17;76.28;101565.38;4988449;28;8852;-68
2023/08/13 04:58:43;;;;;;;;;2.25;2.25;;;;;18.12;76.48;101566.03;4977669;28;8860;-68
2023/08/13 05:01:10;;;;;;;;;1.00;1.00;;;;;18.13;76.45;101562.25;4961274;28;8838;-68
2023/08/13 05:03:39;;;;;;;;;3.00;2.50;;;;;18.10;76.34;101564.59;4989181;28;8852;-68
2023/08/13 05:06:06;;;;;;;;;2.00;2.00;;;;;18.07;76.53;101573.22;4989182;28;8857;-68
2023/08/13 05:08:32;;;;;;;;;1.00;1.00;;;;;18.10;76.81;101567.31;4989565;28;8857;-68
2023/08/13 05:10:59;;;;;;;;;2.00;2.00;;;;;18.07;76.38;101571.34;4998699;28;8976;-68
2023/08/13 05:13:26;;;;;;;;;1.75;1.75;;;;;18.07;76.64;101575.94;4989146;28;8966;-68
2023/08/13 05:15:52;;;;;;;;;2.00;1.50;;;;;18.06;76.78;101563.38;5010940;28;8825;-68
2023/08/13 05:18:19;;;;;;;;;1.00;1.00;;;;;18.11;76.77;101569.84;4989427;28;9645;-68
2023/08/13 05:20:46;;;;;;;;;4.75;3.00;;;;;18.11;76.50;101580.75;4987863;28;8958;-68
2023/08/13 05:23:13;;;;;;;;;2.00;2.00;;;;;18.13;76.38;101570.44;5018982;28;8890;-68
2023/08/13 05:25:39;;;;;;;;;2.00;2.00;;;;;18.11;75.89;101578.00;5004928;28;8950;-68
2023/08/13 05:28:08;;;;;;;;;2.75;2.75;;;;;18.04;76.43;101569.06;4984307;28;8852;-68
2023/08/13 05:30:37;;;;;;;;;2.00;2.00;;;;;18.01;76.52;101572.25;4979253;28;9834;-68
2023/08/13 05:33:05;;;;;;;;;5.00;4.00;;;;;18.02;76.63;101582.06;5019719;28;8956;-68
2023/08/13 05:35:32;;;;;;;;;2.00;2.00;;;;;18.06;76.66;101574.28;5010597;28;8869;-68
2023/08/13 05:37:59;;;;;;;;;3.00;2.00;;;;;18.09;76.72;101576.56;5012596;28;8843;-68
2023/08/13 05:40:26;;;;;;;;;3.00;3.00;;;;;18.10;76.90;101576.31;5008997;28;9708;-68
2023/08/13 05:42:52;;;;;;;;;2.00;1.75;;;;;18.13;76.62;101578.59;4990265;28;8976;-67
2023/08/13 05:45:19;;;;;;;;;1.75;1.75;;;;;18.13;76.46;101572.31;4986603;28;8893;-68
2023/08/13 05:47:45;;;;;;;;;1.75;1.75;;;;;18.12;76.64;101581.56;4993389;28;8941;-68
2023/08/13 05:50:12;;;;;;;;;2.50;2.50;;;;;18.12;76.52;101582.41;5001753;28;8839;-68
2023/08/13 05:52:40;;;;;;;;;1.00;1.00;;;;;18.16;76.58;101583.59;5007766;28;8834;-68
2023/08/13 05:55:07;;;;;;;;;1.00;1.00;;;;;18.21;76.62;101581.03;4992974;28;8834;-68
2023/08/13 05:57:34;;;;;;;;;2.75;1.00;;;;;18.24;76.37;101583.31;4992746;28;8837;-68
2023/08/13 06:00:05;;;;;;;;;2.75;2.00;;;;;18.27;76.55;101585.59;4979051;28;8872;-68
2023/08/13 06:02:38;;;;;;;;;3.00;3.00;;;;;18.22;76.57;101585.41;4991177;28;8874;-68
2023/08/13 06:05:06;;;;;;;;;1.75;1.75;;;;;18.23;76.58;101584.38;4992633;28;8919;-68
2023/08/13 06:07:36;;;;;;;;;2.00;2.00;;;;;18.27;76.75;101591.03;4978311;28;8860;-68
2023/08/13 06:10:04;;;;;;;;;0.75;0.75;;;;;18.31;76.58;101585.09;4978859;28;8884;-68
2023/08/13 06:12:31;;;;;;;;;2.50;2.50;;;;;18.29;76.61;101588.91;4983384;28;8858;-68
2023/08/13 06:14:58;;;;;;;;;3.25;1.00;;;;;18.29;76.73;101591.63;4982108;28;8853;-68
2023/08/13 06:17:25;;;;;;;;;6.00;4.50;;;;;18.31;76.64;101601.47;4982244;28;8856;-68
2023/08/13 06:19:52;;;;;;;;;1.50;1.00;;;;;18.38;77.01;101596.78;4982881;28;8841;-68
2023/08/13 06:22:19;;;;;;;;;2.00;2.00;;;;;18.43;76.70;101589.59;4981310;28;9561;-68
2023/08/13 06:24:45;;;;;;;;;1.00;1.00;;;;;18.49;76.53;101576.94;4983903;28;8837;-68
2023/08/13 06:27:12;;;;;;;;;1.50;1.00;;;;;18.53;76.64;101572.69;5002978;28;8881;-68
2023/08/13 06:29:38;;;;;;;;;1.00;1.00;;;;;18.59;76.14;101585.38;4970984;28;9615;-68
2023/08/13 06:32:05;;;;;;;;;3.00;1.25;;;;;18.59;76.32;101571.75;4980579;28;8842;-68
2023/08/13 06:34:32;;;;;;;;;1.75;1.00;;;;;18.63;76.34;101575.69;4982625;28;8840;-68
2023/08/13 06:36:58;;;;;;;;;3.00;2.50;;;;;18.67;76.19;101578.78;4982085;28;8869;-68
2023/08/13 06:39:28;;;;;;;;;4.00;1.00;;;;;18.69;75.98;101582.13;4983278;28;8862;-68
2023/08/13 06:41:56;;;;;;;;;2.00;2.00;;;;;18.66;75.73;101585.31;4984503;28;8917;-68
2023/08/13 06:44:27;;;;;;;;;4.00;2.25;;;;;18.67;75.76;101587.81;4981670;28;8905;-68
2023/08/13 06:46:53;;;;;;;;;1.00;1.00;;;;;18.70;75.69;101587.38;4976554;28;8872;-68
2023/08/13 06:49:20;;;;;;;;;1.00;1.00;;;;;18.75;75.58;101584.78;5016139;23;8897;-68
2023/08/13 06:51:46;;;;;;;;;1.00;1.00;;;;;18.74;75.33;101591.31;5011628;28;8853;-67
2023/08/13 06:54:13;;;;;;;;;3.50;2.00;;;;;18.68;75.43;101588.66;5025201;28;9549;-68
2023/08/13 06:56:39;;;;;;;;;2.75;2.75;;;;;18.64;75.40;101595.63;5025762;28;8864;-67
2023/08/13 06:59:06;;;;;;;;;3.00;2.00;;;;;18.68;75.58;101602.28;5031081;28;8868;-68
2023/08/13 07:01:32;;;;;;;;;1.25;1.25;;;;;18.70;75.60;101592.00;5029462;28;8857;-67
2023/08/13 07:03:59;;;;;;;;;2.00;2.00;;;;;18.77;75.51;101599.03;5034736;28;8833;-67
2023/08/13 07:06:26;;;;;;;;;2.00;1.00;;;;;18.87;75.24;101601.22;5025035;28;8853;-67
2023/08/13 07:08:52;;;;;;;;;2.50;2.50;;;;;18.86;75.03;101593.25;5029175;28;8857;-68
2023/08/13 07:11:19;;;;;;;;;2.75;2.75;;;;;18.83;75.02;101594.56;5019993;28;9528;-68
2023/08/13 07:13:49;;;;;;;;;1.25;1.00;;;;;18.85;75.23;101594.34;5025702;28;8868;-68
2023/08/13 07:16:16;;;;;;;;;2.00;2.00;;;;;18.90;75.00;101589.84;5019520;28;8860;-68
2023/08/13 07:18:43;;;;;;;;;2.25;2.00;;;;;18.94;75.00;101599.22;5031754;28;8831;-67
2023/08/13 07:21:11;;;;;;;;;1.00;1.00;;;;;18.91;74.79;101586.03;5041972;28;8839;-68
2023/08/13 07:23:37;;;;;;;;;4.75;1.25;;;;;19.00;74.95;101575.66;5034579;28;8857;-68
2023/08/13 07:26:05;;;;;;;;;1.00;1.00;;;;;19.07;74.83;101576.38;5029788;28;8857;-68
2023/08/13 07:28:34;;;;;;;;;3.00;3.00;;;;;19.07;74.42;101586.47;5003914;28;8846;-68
2023/08/13 07:31:04;;;;;;;;;2.00;1.50;;;;;19.08;74.24;101588.09;5009945;28;8845;-68
2023/08/13 07:33:31;;;;;;;;;3.25;2.25;;;;;19.09;74.08;101587.06;5027630;28;8822;-69
2023/08/13 07:36:00;;;;;;;;;4.00;2.75;;;;;19.14;74.04;101589.94;5032482;28;8869;-69
2023/08/13 07:38:27;;;;;;;;;1.50;1.25;;;;;19.21;73.96;101579.75;5031295;28;8861;-69
2023/08/13 07:40:56;;;;;;;;;3.00;3.00;;;;;19.16;73.66;101587.78;5011035;28;8834;-69
2023/08/13 07:43:26;;;;;;;;;2.75;2.50;;;;;19.11;73.91;101580.28;5023724;28;9629;-69
2023/08/13 07:45:53;;;;;;;;;1.25;1.25;;;;;19.17;74.06;101584.00;5026291;28;8862;-69
2023/08/13 07:48:19;;;;;;;;;2.25;1.25;;;;;19.24;73.96;101585.56;5023380;28;8849;-69
2023/08/13 07:50:46;;;;;;;;;2.00;2.00;;;;;19.26;73.96;101591.63;5028479;28;8952;-69
2023/08/13 07:53:13;;;;;;;;;3.00;3.00;;;;;19.29;73.94;101597.69;5031854;28;8967;-69
2023/08/13 07:55:39;;;;;;;;;2.25;2.00;;;;;19.30;73.98;101602.91;5029629;28;8851;-69
2023/08/13 07:58:06;;;;;;;;;3.00;3.00;;;;;19.25;74.30;101597.31;5030003;28;8849;-69
2023/08/13 08:00:32;;;;;;;;;3.50;3.00;;;;;19.33;74.37;101596.16;5023114;28;8876;-69
2023/08/13 08:02:59;;;;;;;;;4.50;3.00;;;;;19.27;74.02;101590.53;5015434;28;8867;-68
2023/08/13 08:05:25;;;;;;;;;3.75;3.50;;;;;19.31;73.97;101588.19;5036723;28;8844;-68
2023/08/13 08:07:52;;;;;;;;;5.00;4.00;;;;;19.35;74.02;101592.09;5025724;28;9512;-69
2023/08/13 08:10:19;;;;;;;;;3.50;3.50;;;;;19.40;73.77;101600.41;5032098;28;8854;-69
2023/08/13 08:12:45;;;;;;;;;4.00;4.00;;;;;19.46;73.55;101602.22;5030821;28;8942;-68
2023/08/13 08:15:12;;;;;;;;;3.00;3.00;;;;;19.44;73.41;101607.06;5022599;28;8829;-69
2023/08/13 08:17:38;;;;;;;;;8.25;7.00;;;;;19.42;73.03;101598.31;5022289;28;8837;-68
2023/08/13 08:20:06;;;;;;;;;6.00;6.00;;;;;19.47;72.97;101600.31;5027619;28;8915;-69
2023/08/13 08:22:33;;;;;;;;;7.75;7.50;;;;;19.37;72.40;101605.53;5024828;28;8860;-68
2023/08/13 08:25:00;;;;;;;;;5.00;5.00;;;;;19.44;72.35;101604.34;5030285;28;8831;-68
2023/08/13 08:27:27;;;;;;;;;3.25;3.00;;;;;19.47;72.28;101606.63;5015794;28;8885;-68
2023/08/13 08:29:54;;;;;;;;;4.50;3.50;;;;;19.48;71.98;101608.28;5025171;28;9576;-68
2023/08/13 08:32:20;;;;;;;;;2.75;2.00;;;;;19.52;72.17;101603.16;5019821;28;8922;-68
2023/08/13 08:34:46;;;;;;;;;3.25;3.25;;;;;19.57;72.15;101608.78;5024703;28;8833;-68
2023/08/13 08:37:14;;;;;;;;;6.50;4.00;;;;;19.48;71.83;101600.06;5026129;28;8885;-68
2023/08/13 08:39:41;;;;;;;;;3.00;3.00;;;;;19.52;72.16;101601.28;5018562;28;8848;-68
2023/08/13 08:42:10;;;;;;;;;3.50;3.00;;;;;19.57;71.93;101600.59;5029596;28;8822;-69
2023/08/13 08:44:42;;;;;;;;;3.75;3.75;;;;;19.59;72.06;101597.63;5045240;28;8854;-63
2023/08/13 08:47:10;;;;;;;;;3.75;3.75;;;;;19.71;71.83;101598.50;5026004;28;8968;-64
2023/08/13 08:49:37;;;;;;;;;8.75;5.75;;;;;19.82;71.41;101605.88;5033286;28;8829;-66
2023/08/13 08:52:05;;;;;;;;;3.25;3.25;;;;;19.87;70.58;101605.97;5027597;28;8824;-69
2023/08/13 08:54:32;;;;;;;;;3.00;3.00;;;;;19.82;69.88;101603.13;5024897;28;8834;-69
2023/08/13 08:56:59;;;;;;;;;1.75;1.75;;;;;19.73;69.43;101605.38;5020996;28;8852;-69
2023/08/13 08:59:26;;;;;;;;;3.00;3.00;;;;;19.76;69.63;101599.44;5030375;28;9525;-69
2023/08/13 09:01:52;;;;;;;;;2.50;2.50;;;;;19.80;69.66;101604.44;5033083;28;8931;-69
2023/08/13 09:04:19;;;;;;;;;2.75;2.75;;;;;19.76;69.46;101598.59;5031690;28;8834;-69
2023/08/13 09:07:01;;;;;;;;;1.50;1.50;;;;;19.77;69.55;101594.81;5008799;28;8846;-66
2023/08/13 09:09:29;;;;;;;;;3.00;3.00;;;;;19.82;69.44;101594.09;5030553;28;8854;-69
2023/08/13 09:11:56;;;;;;;;;2.00;2.00;;;;;19.84;69.49;101595.50;5002425;28;9541;-68
2023/08/13 09:14:24;;;;;;;;;2.00;2.00;;;;;19.89;69.69;101598.38;5053035;28;8843;-70
2023/08/13 09:16:53;;;;;;;;;2.00;2.00;;;;;19.93;69.88;101593.25;5043727;28;8903;-69
2023/08/13 09:19:22;;;;;;;;;4.00;3.00;;;;;19.90;69.64;101597.31;5040014;28;8823;-68
2023/08/13 09:21:54;;;;;;;;;2.50;2.00;;;;;19.93;69.86;101595.97;5036899;28;8916;-68
2023/08/13 09:24:32;;;;;;;;;1.25;1.25;;;;;19.81;69.66;101601.47;5049442;28;8838;-68
2023/08/13 09:27:00;;;;;;;;;1.00;1.00;;;;;19.84;69.80;101597.41;5036778;28;8973;-68
2023/08/13 09:29:29;;;;;;;;;2.00;2.00;;;;;19.82;69.55;101589.47;5046616;28;8858;-68
2023/08/13 09:31:56;;;;;;;;;0.50;0.50;;;;;19.80;69.48;101588.84;5014639;23;8897;-69
2023/08/13 09:34:25;;;;;;;;;2.50;1.00;;;;;19.85;69.64;101589.00;4986747;28;8833;-70
2023/08/13 09:36:53;;;;;;;;;2.25;1.00;;;;;19.86;69.42;101590.66;4982763;28;8843;-70
2023/08/13 09:39:27;;;;;;;;;1.50;1.50;;;;;19.94;69.34;101581.28;4983165;28;8855;-70
2023/08/13 09:41:54;;;;;;;;;3.25;1.25;;;;;20.01;69.32;101581.97;4992337;28;8843;-69
2023/08/13 09:44:25;;;;;;;;;1.00;1.00;;;;;20.07;68.65;101572.00;4993010;28;8878;-70
2023/08/13 09:46:54;;;;;;;;;0.00;0.00;;;;;20.12;68.47;101580.28;4993498;28;8850;-69
2023/08/13 09:49:22;;;;;;;;;1.00;1.00;;;;;20.13;68.23;101566.38;4993304;28;8886;-71
2023/08/13 09:51:51;;;;;;;;;0.75;0.75;;;;;20.18;68.47;101574.72;5001711;28;8849;-70
2023/08/13 09:54:38;;;;;;;;;0.75;0.75;;;;;20.24;68.10;101572.91;4997305;28;8976;-70
2023/08/13 09:57:08;;;;;;;;;0.75;0.75;;;;;20.23;67.77;101574.81;4992171;28;8864;-70
2023/08/13 09:59:36;;;;;;;;;0.00;0.00;;;;;20.22;68.02;101570.41;4995719;28;8928;-65
2023/08/13 10:02:11;;;;;;;;;0.00;0.00;;;;;20.27;67.63;101566.97;5000528;28;8835;-66
2023/08/13 10:04:39;;;;;;;;;0.25;0.25;;;;;20.31;67.53;101570.03;4976574;28;8843;-66
2023/08/13 10:07:06;;;;;;;;;0.00;0.00;;;;;20.40;67.41;101560.38;4992844;28;8865;-67
2023/08/13 10:09:34;;;;;;;;;1.25;1.25;;;;;20.46;66.74;101571.19;4971428;28;8842;-66
2023/08/13 10:12:01;;;;;;;;;1.00;1.00;;;;;20.58;66.44;101567.59;4990978;28;8950;-66
2023/08/13 10:14:30;;;;;;;;;1.75;1.00;;;;;20.77;65.47;101566.34;5002740;28;8958;-67
2023/08/13 10:17:00;;;;;;;;;1.00;1.00;;;;;20.89;65.04;101560.81;5000509;28;8971;-65
2023/08/13 10:19:28;;;;;;;;;0.75;0.75;;;;;20.92;64.92;101563.06;5012104;28;8844;-67
2023/08/13 10:21:56;;;;;;;;;0.75;0.25;;;;;20.94;65.04;101560.91;4999903;28;8894;-65
2023/08/13 10:24:23;;;;;;;;;0.00;0.00;;;;;20.84;64.56;101566.22;4997444;28;8843;-65
2023/08/13 10:26:50;;;;;;;;;0.50;0.50;;;;;20.77;64.61;101560.88;4968711;28;8862;-66
2023/08/13 10:29:21;;;;;;;;;1.50;1.00;;;;;20.79;64.70;101560.66;4992298;28;9554;-68
2023/08/13 10:31:54;;;;;;;;;1.00;1.00;;;;;20.84;64.78;101555.25;4991670;28;8847;-65
2023/08/13 10:34:46;;;;;;;;;1.00;0.00;;;;;20.86;64.83;101555.84;4998499;28;9628;-66
2023/08/13 10:37:23;;;;;;;;;1.00;1.00;;;;;20.74;64.57;101551.25;5008655;28;8953;-68
2023/08/13 10:39:56;;;;;;;;;0.00;0.00;;;;;20.77;64.88;101555.41;4985478;28;8846;-67
2023/08/13 10:42:26;;;;;;;;;1.00;0.25;;;;;20.71;64.63;101565.44;4995641;28;8844;-66
2023/08/13 10:45:10;;;;;;;;;2.00;0.00;;;;;20.60;64.47;101555.34;4979002;28;8858;-67
2023/08/13 10:47:49;;;;;;;;;0.00;0.00;;;;;20.63;64.69;101554.03;4976005;28;9558;-66
2023/08/13 10:50:23;;;;;;;;;0.00;0.00;;;;;20.69;65.17;101556.63;4975811;28;9628;-67
2023/08/13 10:52:54;;;;;;;;;2.00;2.00;;;;;20.79;64.94;101552.44;4976237;28;9564;-63
2023/08/13 10:55:24;;;;;;;;;1.25;1.00;;;;;20.90;64.95;101555.13;4995837;28;8885;-67
2023/08/13 10:57:52;;;;;;;;;0.00;0.00;;;;;20.97;64.85;101549.47;5006805;28;9274;-67
2023/08/13 11:00:22;;;;;;;;;0.00;0.00;;;;;21.02;64.70;101552.28;4996730;28;8858;-66
2023/08/13 11:03:00;;;;;;;;;0.00;0.00;;;;;20.89;64.37;101553.44;4983305;28;8847;-67
2023/08/13 11:05:28;;;;;;;;;0.50;0.50;;;;;20.93;64.34;101554.59;4991197;28;8865;-67
2023/08/13 11:07:55;;;;;;;;;2.00;1.00;;;;;20.96;64.54;101561.50;4993562;28;8862;-66
2023/08/13 11:10:22;;;;;;;;;1.00;1.00;;;;;20.88;64.01;101564.66;5007482;28;8852;-65
2023/08/13 11:12:49;;;;;;;;;1.25;1.25;;;;;20.87;64.13;101549.31;4991351;28;8979;-67
2023/08/13 11:15:16;;;;;;;;;0.75;0.75;;;;;20.82;64.11;101549.19;4990658;28;8859;-69
2023/08/13 11:17:46;;;;;;;;;1.00;1.00;;;;;20.84;64.06;101542.41;4989822;28;8846;-68
2023/08/13 11:20:16;;;;;;;;;0.00;0.00;;;;;20.86;64.11;101539.41;4992901;28;8896;-69
2023/08/13 11:22:43;;;;;;;;;0.75;0.75;;;;;20.89;64.13;101536.19;4990795;28;8941;-69
2023/08/13 11:25:10;;;;;;;;;0.25;0.25;;;;;20.83;63.98;101548.97;4970441;28;8861;-69
2023/08/13 11:27:37;;;;;;;;;0.75;0.75;;;;;20.92;63.84;101542.00;4977549;28;8889;-69
2023/08/13 11:30:04;;;;;;;;;1.00;1.00;;;;;21.02;64.29;101549.56;4995446;28;8840;-69
2023/08/13 11:32:31;;;;;;;;;0.75;0.75;;;;;21.06;64.14;101541.69;4996326;28;8855;-69
2023/08/13 11:35:00;;;;;;;;;0.50;0.50;;;;;21.10;64.01;101545.59;5001441;28;8965;-69
2023/08/13 11:37:27;;;;;;;;;0.25;0.25;;;;;21.05;63.81;101557.28;4973618;28;8973;-69